Time;durP1;ratioP1;P1;durP2;ratioP2;P2;SDS_P1;SDS_P2;PMS_P1;PMS_P2;Temp;Humidity;BMP_temperature;BMP_pressure;BME280_temperature;BME280_humidity;BME280_pressure;Samples;Min_cycle;Max_cycle;Signal;HPM_P1;HPM_P2
2023/04/08 00:02:08;;;;;;;;;;;;;;;7.92;78.52;101900.29;109246;1254;67228;-79
2023/04/08 00:04:35;;;;;;;;;;;;;;;7.92;78.55;101907.84;109205;1254;73142;-79
2023/04/08 00:07:02;;;;;;;;;;;;;;;7.90;78.59;101912.42;109093;1254;124925;-79
2023/04/08 00:09:29;;;;;;;;;;;;;;;7.90;78.61;101916.81;109158;1255;60650;-78
2023/04/08 00:11:56;;;;;;;;;;;;;;;7.93;78.70;101919.75;108857;1254;125906;-78
2023/04/08 00:14:23;;;;;;;;;;;;;;;7.98;78.80;101920.87;109147;1254;65737;-79
2023/04/08 00:16:50;;;;;;;;;;;;;;;8.00;78.76;101917.31;108921;1254;73297;-78
2023/04/08 00:19:17;;;;;;;;;;;;;;;8.01;78.67;101926.44;109020;1257;124687;-79
2023/04/08 00:21:44;;;;;;;;;;;;;;;8.02;78.70;101928.25;109085;1255;60155;-78
2023/04/08 00:24:11;;;;;;;;;;;;;;;8.02;78.64;101927.57;108859;1257;125617;-79
2023/04/08 00:26:38;;;;;;;;;;;;;;;8.01;78.59;101929.94;109205;1254;65807;-78
2023/04/08 00:29:05;;;;;;;;;;;;;;;8.00;78.71;101927.98;109126;1255;71397;-79
2023/04/08 00:31:32;;;;;;;;;;;;;;;7.97;78.62;101926.98;109054;1254;125265;-79
2023/04/08 00:33:59;;;;;;;;;;;;;;;7.93;78.60;101924.64;109153;1253;59051;-79
2023/04/08 00:36:26;;;;;;;;;;;;;;;7.90;78.61;101927.08;108789;1254;125451;-79
2023/04/08 00:38:53;;;;;;;;;;;;;;;7.89;78.66;101927.20;109168;1254;65767;-79
2023/04/08 00:41:20;;;;;;;;;;;;;;;7.86;78.59;101932.81;108850;1257;71252;-79
2023/04/08 00:43:47;;;;;;;;;;;;;;;7.81;78.63;101933.96;109009;1253;125303;-79
2023/04/08 00:46:14;;;;;;;;;;;;;;;7.78;78.65;101937.63;109112;1254;59242;-79
2023/04/08 00:48:41;;;;;;;;;;;;;;;7.76;78.63;101941.87;108962;1257;125209;-78
2023/04/08 00:51:08;;;;;;;;;;;;;;;7.73;78.70;101937.85;109084;1255;67525;-79
2023/04/08 00:53:35;;;;;;;;;;;;;;;7.69;78.65;101943.40;108741;1254;72792;-78
2023/04/08 00:56:02;;;;;;;;;;;;;;;7.64;78.65;101947.52;109000;1254;182774;-79
2023/04/08 00:58:29;;;;;;;;;;;;;;;7.58;78.59;101949.12;108961;1254;60276;-79
2023/04/08 01:00:59;;;;;;;;;;;;;;;7.52;78.66;101948.77;107766;1257;126111;-79
2023/04/08 01:03:30;;;;;;;;;;;;;;;7.45;78.67;101948.53;107399;1261;66804;-79
2023/04/08 01:06:26;;;;;;;;;;;;;;;7.37;78.60;101953.30;107615;1258;125422;-78
2023/04/08 01:08:53;;;;;;;;;;;;;;;7.25;78.69;101955.59;107262;1263;61396;-79
2023/04/08 01:11:20;;;;;;;;;;;;;;;7.16;78.70;101953.88;107264;1263;59670;-78
2023/04/08 01:13:47;;;;;;;;;;;;;;;7.09;78.77;101955.70;107088;1263;124944;-78
2023/04/08 01:16:14;;;;;;;;;;;;;;;7.01;78.88;101951.42;107277;1262;67248;-78
2023/04/08 01:18:42;;;;;;;;;;;;;;;6.98;79.06;101950.37;108206;1262;125065;-79
2023/04/08 01:21:09;;;;;;;;;;;;;;;6.97;79.29;101958.52;108494;1266;59831;-79
2023/04/08 01:23:54;;;;;;;;;;;;;;;6.98;79.30;101953.51;108430;1260;59419;-79
2023/04/08 01:26:25;;;;;;;;;;;;;;;6.99;79.40;101955.80;108534;1262;75921;-79
2023/04/08 01:28:56;;;;;;;;;;;;;;;6.99;79.51;101957.60;108561;1261;66908;-79
2023/04/08 01:31:23;;;;;;;;;;;;;;;7.01;79.53;101961.54;108486;1261;124728;-79
2023/04/08 01:33:50;;;;;;;;;;;;;;;7.02;79.58;101961.60;108533;1262;60179;-80
2023/04/08 01:36:17;;;;;;;;;;;;;;;7.03;79.63;101972.48;108539;1263;125166;-79
2023/04/08 01:38:44;;;;;;;;;;;;;;;7.05;79.71;101975.73;108600;1265;74186;-79
2023/04/08 01:41:11;;;;;;;;;;;;;;;7.05;79.74;101976.42;108574;1265;67549;-79
2023/04/08 01:43:38;;;;;;;;;;;;;;;7.06;79.70;101978.54;108431;1261;124628;-79
2023/04/08 01:46:05;;;;;;;;;;;;;;;7.06;79.73;101983.10;108763;1256;60105;-79
2023/04/08 01:48:32;;;;;;;;;;;;;;;7.07;79.84;101984.05;108851;1257;125178;-79
2023/04/08 01:50:59;;;;;;;;;;;;;;;7.08;79.82;101983.08;108982;1257;73309;-79
2023/04/08 01:53:26;;;;;;;;;;;;;;;7.09;79.83;101981.38;109050;1257;66260;-80
2023/04/08 01:55:57;;;;;;;;;;;;;;;7.11;79.87;101980.08;109011;1258;124783;-80
2023/04/08 01:58:24;;;;;;;;;;;;;;;7.10;79.88;101986.17;109035;1260;60150;-79
2023/04/08 02:00:51;;;;;;;;;;;;;;;7.11;79.97;101986.04;109013;1254;125382;-79
2023/04/08 02:03:18;;;;;;;;;;;;;;;7.12;79.88;101985.05;109008;1254;73187;-79
2023/04/08 02:05:45;;;;;;;;;;;;;;;7.13;79.94;101984.79;108986;1259;125603;-79
2023/04/08 02:08:12;;;;;;;;;;;;;;;7.15;79.97;101985.73;108924;1254;72877;-79
2023/04/08 02:10:39;;;;;;;;;;;;;;;7.15;79.88;101989.44;108955;1255;59600;-79
2023/04/08 02:13:06;;;;;;;;;;;;;;;7.16;79.99;101988.73;108939;1260;125468;-79
2023/04/08 02:15:34;;;;;;;;;;;;;;;7.16;80.01;101984.04;108271;1254;75057;-88
2023/04/08 02:18:06;;;;;;;;;;;;;;;7.17;79.95;101984.10;107261;1262;125338;-79
2023/04/08 02:20:38;;;;;;;;;;;;;;;7.18;79.93;101990.45;107632;1261;72729;-79
2023/04/08 02:23:17;;;;;;;;;;;;;;;7.16;79.86;101992.98;107398;1260;61278;-79
2023/04/08 02:25:44;;;;;;;;;;;;;;;7.15;79.92;101993.77;107478;1260;125095;-79
2023/04/08 02:28:11;;;;;;;;;;;;;;;7.14;79.87;101999.66;107796;1254;73375;-80
2023/04/08 02:30:40;;;;;;;;;;;;;;;7.15;80.00;101998.13;107933;1258;125450;-79
2023/04/08 02:33:07;;;;;;;;;;;;;;;7.17;79.99;101997.56;107662;1260;70174;-79
2023/04/08 02:35:35;;;;;;;;;;;;;;;7.16;79.96;102000.63;107707;1254;60931;-80
2023/04/08 02:38:02;;;;;;;;;;;;;;;7.15;79.92;101994.66;107808;1254;125102;-80
2023/04/08 02:40:31;;;;;;;;;;;;;;;7.13;80.01;101997.16;108179;1259;72727;-80
2023/04/08 02:42:58;;;;;;;;;;;;;;;7.13;79.96;101996.63;107830;1254;125541;-81
2023/04/08 02:45:34;;;;;;;;;;;;;;;7.13;79.98;101999.61;107907;1257;72669;-79
2023/04/08 02:48:02;;;;;;;;;;;;;;;7.12;79.89;101999.02;107595;1260;124865;-78
2023/04/08 02:50:28;;;;;;;;;;;;;;;7.11;79.85;102003.81;107721;1254;61422;-79
2023/04/08 02:52:56;;;;;;;;;;;;;;;7.10;79.97;102001.69;107882;1254;74975;-79
2023/04/08 02:55:22;;;;;;;;;;;;;;;7.10;79.99;102003.44;108927;1258;180670;-79
2023/04/08 02:57:49;;;;;;;;;;;;;;;7.09;79.90;102003.90;109078;1254;71408;-79
2023/04/08 03:00:16;;;;;;;;;;;;;;;7.09;79.97;101999.86;107890;1254;124915;-79
2023/04/08 03:02:44;;;;;;;;;;;;;;;7.10;80.06;102005.85;107727;1254;59833;-79
2023/04/08 03:05:11;;;;;;;;;;;;;;;7.11;80.05;102009.42;109020;1259;73798;-80
2023/04/08 03:07:38;;;;;;;;;;;;;;;7.10;80.00;102015.27;109005;1254;125214;-80
2023/04/08 03:10:05;;;;;;;;;;;;;;;7.09;80.13;102015.05;108883;1257;72423;-80
2023/04/08 03:12:32;;;;;;;;;;;;;;;7.10;80.13;102016.66;108853;1254;125122;-80
2023/04/08 03:15:00;;;;;;;;;;;;;;;7.11;80.09;102017.80;109062;1254;60002;-79
2023/04/08 03:17:27;;;;;;;;;;;;;;;7.12;80.14;102018.56;108953;1254;74792;-79
2023/04/08 03:19:54;;;;;;;;;;;;;;;7.12;80.07;102021.17;108858;1254;125443;-79
2023/04/08 03:22:23;;;;;;;;;;;;;;;7.13;80.12;102019.13;109165;1254;72522;-79
2023/04/08 03:24:50;;;;;;;;;;;;;;;7.12;80.07;102018.52;108978;1254;124695;-79
2023/04/08 03:27:17;;;;;;;;;;;;;;;7.12;80.16;102019.23;108922;1255;60621;-78
2023/04/08 03:29:45;;;;;;;;;;;;;;;7.11;80.07;102022.36;108962;1258;125383;-78
2023/04/08 03:32:12;;;;;;;;;;;;;;;7.09;79.97;102022.94;108909;1254;67176;-78
2023/04/08 03:34:39;;;;;;;;;;;;;;;7.08;80.05;102024.23;109193;1254;72525;-78
2023/04/08 03:37:06;;;;;;;;;;;;;;;7.07;80.08;102026.48;108980;1254;125031;-78
2023/04/08 03:39:33;;;;;;;;;;;;;;;7.08;80.13;102029.28;108999;1254;59279;-78
2023/04/08 03:42:01;;;;;;;;;;;;;;;7.06;80.06;102030.42;109111;1254;125569;-78
2023/04/08 03:44:28;;;;;;;;;;;;;;;7.05;80.05;102036.09;108995;1254;67588;-78
2023/04/08 03:46:55;;;;;;;;;;;;;;;7.02;80.01;102039.78;109005;1257;73924;-78
2023/04/08 03:49:22;;;;;;;;;;;;;;;6.96;79.82;102042.90;109151;1254;126079;-78
2023/04/08 03:51:49;;;;;;;;;;;;;;;6.91;79.88;102041.19;109263;1254;59242;-80
2023/04/08 03:54:16;;;;;;;;;;;;;;;6.84;79.72;102043.55;108965;1254;125379;-80
2023/04/08 03:56:43;;;;;;;;;;;;;;;6.76;79.78;102044.36;108039;1254;67120;-80
2023/04/08 03:59:10;;;;;;;;;;;;;;;6.69;79.68;102041.79;107624;1257;71334;-79
2023/04/08 04:01:37;;;;;;;;;;;;;;;6.60;79.74;102044.04;107451;1254;126323;-79
2023/04/08 04:04:04;;;;;;;;;;;;;;;6.52;79.73;102049.95;107557;1257;60815;-80
2023/04/08 04:06:34;;;;;;;;;;;;;;;6.45;79.88;102050.42;107754;1254;124860;-80
2023/04/08 04:09:01;;;;;;;;;;;;;;;6.39;79.90;102049.55;107781;1254;65740;-79
2023/04/08 04:11:28;;;;;;;;;;;;;;;6.34;79.94;102054.47;107657;1254;70506;-78
2023/04/08 04:13:55;;;;;;;;;;;;;;;6.29;80.09;102051.90;107573;1254;124920;-79
2023/04/08 04:16:22;;;;;;;;;;;;;;;6.25;80.13;102053.56;107994;1253;61228;-79
2023/04/08 04:18:48;;;;;;;;;;;;;;;6.21;80.13;102057.31;107776;1254;125331;-79
2023/04/08 04:21:15;;;;;;;;;;;;;;;6.18;80.18;102062.66;109147;1254;66408;-79
2023/04/08 04:23:42;;;;;;;;;;;;;;;6.14;80.19;102063.32;108984;1254;72198;-78
2023/04/08 04:26:10;;;;;;;;;;;;;;;6.13;80.17;102061.84;108959;1254;59832;-78
2023/04/08 04:28:37;;;;;;;;;;;;;;;6.14;80.41;102066.95;109161;1254;60573;-79
2023/04/08 04:31:04;;;;;;;;;;;;;;;6.14;80.38;102071.30;107524;1260;125119;-78
2023/04/08 04:33:31;;;;;;;;;;;;;;;6.15;80.46;102074.67;107514;1254;65829;-78
2023/04/08 04:35:58;;;;;;;;;;;;;;;6.17;80.53;102074.13;107376;1254;125350;-80
2023/04/08 04:38:25;;;;;;;;;;;;;;;6.21;80.55;102075.07;107815;1254;59984;-80
2023/04/08 04:40:52;;;;;;;;;;;;;;;6.25;80.72;102078.65;108863;1254;59824;-78
2023/04/08 04:43:19;;;;;;;;;;;;;;;6.27;80.62;102076.33;108801;1254;124797;-77
2023/04/08 04:45:46;;;;;;;;;;;;;;;6.31;80.69;102084.45;108982;1254;66899;-78
2023/04/08 04:48:13;;;;;;;;;;;;;;;6.37;80.73;102089.52;108856;1254;125064;-79
2023/04/08 04:50:40;;;;;;;;;;;;;;;6.39;80.67;102090.89;108990;1261;60116;-79
2023/04/08 04:53:07;;;;;;;;;;;;;;;6.41;80.55;102094.30;109141;1254;59406;-79
2023/04/08 04:55:34;;;;;;;;;;;;;;;6.41;80.48;102092.55;109065;1257;124636;-79
2023/04/08 04:58:01;;;;;;;;;;;;;;;6.43;80.32;102093.73;109128;1254;65471;-79
2023/04/08 05:00:28;;;;;;;;;;;;;;;6.50;80.39;102099.76;108878;1254;124242;-79
2023/04/08 05:02:55;;;;;;;;;;;;;;;6.56;80.34;102099.77;109006;1254;59339;-78
2023/04/08 05:05:22;;;;;;;;;;;;;;;6.64;80.35;102100.95;109176;1254;60688;-79
2023/04/08 05:07:49;;;;;;;;;;;;;;;6.69;80.37;102104.75;109067;1254;124657;-78
2023/04/08 05:10:16;;;;;;;;;;;;;;;6.77;80.52;102104.73;109018;1254;66977;-78
2023/04/08 05:12:43;;;;;;;;;;;;;;;6.87;80.50;102106.54;109083;1253;124722;-78
2023/04/08 05:15:10;;;;;;;;;;;;;;;6.94;80.42;102106.86;109205;1253;59361;-78
2023/04/08 05:17:37;;;;;;;;;;;;;;;6.99;80.34;102108.02;108972;1256;61373;-78
2023/04/08 05:20:04;;;;;;;;;;;;;;;7.05;80.26;102108.71;109125;1257;124386;-78
2023/04/08 05:22:31;;;;;;;;;;;;;;;7.12;80.31;102113.54;109081;1254;67035;-78
2023/04/08 05:24:58;;;;;;;;;;;;;;;7.19;80.40;102114.50;108857;1254;124520;-78
2023/04/08 05:27:25;;;;;;;;;;;;;;;7.24;80.29;102113.04;109029;1254;59169;-78
2023/04/08 05:29:55;;;;;;;;;;;;;;;7.27;80.18;102116.32;109104;1254;124140;-79
2023/04/08 05:32:22;;;;;;;;;;;;;;;7.28;80.18;102113.95;109156;1254;74894;-78
2023/04/08 05:34:49;;;;;;;;;;;;;;;7.32;80.25;102116.29;109214;1253;67245;-78
2023/04/08 05:37:16;;;;;;;;;;;;;;;7.39;80.32;102117.58;109109;1254;123719;-78
2023/04/08 05:39:43;;;;;;;;;;;;;;;7.46;80.37;102121.98;109176;1253;59085;-77
2023/04/08 05:42:12;;;;;;;;;;;;;;;7.53;80.45;102121.90;109090;1253;124014;-78
2023/04/08 05:44:42;;;;;;;;;;;;;;;7.59;80.37;102125.75;108982;1254;74758;-78
2023/04/08 05:47:09;;;;;;;;;;;;;;;7.67;80.40;102123.40;109192;1254;65646;-79
2023/04/08 05:49:36;;;;;;;;;;;;;;;7.75;80.41;102129.45;108920;1254;123757;-78
2023/04/08 05:52:04;;;;;;;;;;;;;;;7.85;80.40;102133.71;109160;1253;59373;-78
2023/04/08 05:54:31;;;;;;;;;;;;;;;7.90;80.34;102131.77;109105;1254;123814;-79
2023/04/08 05:56:58;;;;;;;;;;;;;;;7.96;80.18;102134.71;109005;1254;73141;-79
2023/04/08 05:59:25;;;;;;;;;;;;;;;7.98;79.99;102135.20;109017;1254;65900;-78
2023/04/08 06:01:53;;;;;;;;;;;;;;;7.97;79.92;102137.41;109075;1257;125872;-79
2023/04/08 06:04:20;;;;;;;;;;;;;;;7.97;79.87;102141.79;109184;1254;60127;-78
2023/04/08 06:06:47;;;;;;;;;;;;;;;8.00;79.90;102145.09;108892;1254;124930;-79
2023/04/08 06:09:14;;;;;;;;;;;;;;;8.08;80.01;102149.58;109029;1254;74682;-79
2023/04/08 06:11:41;;;;;;;;;;;;;;;8.16;79.94;102146.87;108997;1254;65768;-78
2023/04/08 06:14:08;;;;;;;;;;;;;;;8.23;79.83;102147.30;108896;1255;124883;-78
2023/04/08 06:16:36;;;;;;;;;;;;;;;8.29;79.76;102146.73;109015;1254;59228;-78
2023/04/08 06:19:03;;;;;;;;;;;;;;;8.37;79.71;102152.08;109116;1253;124831;-79
2023/04/08 06:21:30;;;;;;;;;;;;;;;8.44;79.64;102154.11;109199;1253;74413;-78
2023/04/08 06:23:57;;;;;;;;;;;;;;;8.50;79.64;102159.84;109084;1254;125341;-78
2023/04/08 06:26:24;;;;;;;;;;;;;;;8.57;79.50;102160.23;109158;1253;70418;-78
2023/04/08 06:28:51;;;;;;;;;;;;;;;8.67;79.62;102162.91;109139;1254;59342;-78
2023/04/08 06:31:18;;;;;;;;;;;;;;;8.83;79.65;102167.09;109031;1253;125130;-79
2023/04/08 06:33:45;;;;;;;;;;;;;;;8.97;79.57;102167.67;108968;1254;74752;-78
2023/04/08 06:36:12;;;;;;;;;;;;;;;9.12;79.52;102163.94;109082;1253;124915;-78
2023/04/08 06:38:39;;;;;;;;;;;;;;;9.29;79.46;102164.65;109232;1253;71900;-79
2023/04/08 06:41:06;;;;;;;;;;;;;;;9.48;79.39;102170.02;109167;1254;59417;-77
2023/04/08 06:43:33;;;;;;;;;;;;;;;9.60;79.06;102169.79;109120;1254;124796;-77
2023/04/08 06:46:00;;;;;;;;;;;;;;;9.72;78.96;102176.16;109194;1254;74672;-78
2023/04/08 06:48:29;;;;;;;;;;;;;;;9.85;78.69;102174.38;109109;1253;124840;-77
2023/04/08 06:50:56;;;;;;;;;;;;;;;9.96;78.41;102176.35;108965;1257;71557;-77
2023/04/08 06:53:23;;;;;;;;;;;;;;;10.09;78.39;102179.46;109214;1254;59221;-80
2023/04/08 06:55:50;;;;;;;;;;;;;;;10.24;78.32;102176.67;108778;1254;125142;-78
2023/04/08 06:58:17;;;;;;;;;;;;;;;10.39;78.19;102178.67;109197;1254;75594;-79
2023/04/08 07:00:44;;;;;;;;;;;;;;;10.50;77.93;102178.84;109119;1253;124284;-79
2023/04/08 07:03:11;;;;;;;;;;;;;;;10.59;77.61;102179.47;109221;1254;71409;-79
2023/04/08 07:05:38;;;;;;;;;;;;;;;10.65;77.35;102183.27;109180;1254;59621;-79
2023/04/08 07:08:05;;;;;;;;;;;;;;;10.68;76.97;102186.54;109013;1253;124006;-79
2023/04/08 07:10:33;;;;;;;;;;;;;;;10.74;76.90;102190.50;108555;1254;73328;-78
2023/04/08 07:13:00;;;;;;;;;;;;;;;10.78;76.73;102191.02;107118;1260;124989;-78
2023/04/08 07:15:29;;;;;;;;;;;;;;;10.85;76.61;102192.94;109108;1253;72672;-80
2023/04/08 07:17:57;;;;;;;;;;;;;;;10.90;76.43;102193.90;109100;1254;124311;-78
2023/04/08 07:20:24;;;;;;;;;;;;;;;11.01;76.44;102195.13;108968;1254;59999;-80
2023/04/08 07:22:51;;;;;;;;;;;;;;;11.10;76.22;102194.13;109088;1254;73238;-80
2023/04/08 07:25:18;;;;;;;;;;;;;;;11.23;76.21;102196.29;109201;1253;124048;-80
2023/04/08 07:27:45;;;;;;;;;;;;;;;11.37;75.93;102196.39;109234;1253;72557;-80
2023/04/08 07:30:12;;;;;;;;;;;;;;;11.36;75.42;102200.04;109164;1256;124565;-80
2023/04/08 07:32:39;;;;;;;;;;;;;;;11.37;75.37;102200.24;109075;1253;60000;-80
2023/04/08 07:35:06;;;;;;;;;;;;;;;11.44;75.39;102203.23;109173;1254;75231;-79
2023/04/08 07:37:34;;;;;;;;;;;;;;;11.52;75.36;102203.94;108932;1259;125161;-78
2023/04/08 07:40:01;;;;;;;;;;;;;;;11.65;75.12;102203.08;109137;1254;71090;-78
2023/04/08 07:42:28;;;;;;;;;;;;;;;11.78;75.15;102205.23;108937;1253;124983;-80
2023/04/08 07:44:55;;;;;;;;;;;;;;;11.99;75.26;102203.52;109078;1254;60149;-80
2023/04/08 07:47:22;;;;;;;;;;;;;;;12.21;75.11;102207.95;109147;1254;72889;-80
2023/04/08 07:49:49;;;;;;;;;;;;;;;12.39;74.81;102209.77;108965;1256;125233;-78
2023/04/08 07:52:16;;;;;;;;;;;;;;;12.53;74.59;102208.55;108899;1254;72677;-78
2023/04/08 07:54:43;;;;;;;;;;;;;;;12.74;74.38;102211.86;109009;1254;125508;-80
2023/04/08 07:57:10;;;;;;;;;;;;;;;12.86;74.15;102208.83;109251;1253;60553;-80
2023/04/08 07:59:37;;;;;;;;;;;;;;;13.01;73.74;102207.44;109028;1254;75235;-80
2023/04/08 08:02:04;;;;;;;;;;;;;;;13.10;73.33;102214.81;109069;1254;124438;-80
2023/04/08 08:04:31;;;;;;;;;;;;;;;13.16;73.12;102211.38;109204;1254;70312;-80
2023/04/08 08:06:58;;;;;;;;;;;;;;;13.19;72.71;102211.66;109142;1253;124054;-80
2023/04/08 08:09:25;;;;;;;;;;;;;;;13.28;72.72;102214.12;109240;1254;59846;-80
2023/04/08 08:11:52;;;;;;;;;;;;;;;13.44;72.62;102219.46;108971;1254;124885;-79
2023/04/08 08:14:20;;;;;;;;;;;;;;;13.61;72.59;102216.74;109012;1254;65780;-81
2023/04/08 08:16:48;;;;;;;;;;;;;;;13.79;72.31;102215.98;108973;1254;71089;-81
2023/04/08 08:19:15;;;;;;;;;;;;;;;13.94;72.12;102218.80;108186;1253;125050;-81
2023/04/08 08:21:42;;;;;;;;;;;;;;;14.04;71.84;102223.38;108032;1254;61223;-81
2023/04/08 08:24:09;;;;;;;;;;;;;;;14.18;71.67;102227.55;107867;1259;124540;-81
2023/04/08 08:26:36;;;;;;;;;;;;;;;14.30;71.46;102230.80;108141;1254;65701;-81
2023/04/08 08:29:03;;;;;;;;;;;;;;;14.47;71.31;102229.24;107898;1254;71078;-80
2023/04/08 08:31:30;;;;;;;;;;;;;;;14.63;70.96;102227.64;107566;1259;124494;-79
2023/04/08 08:33:57;;;;;;;;;;;;;;;14.69;70.36;102226.95;107710;1254;61362;-82
2023/04/08 08:36:26;;;;;;;;;;;;;;;14.74;70.21;102227.99;108264;1254;125064;-82
2023/04/08 08:38:53;;;;;;;;;;;;;;;14.83;70.04;102224.04;107902;1254;66799;-82
2023/04/08 08:41:21;;;;;;;;;;;;;;;14.89;69.66;102225.11;107537;1254;71072;-80
2023/04/08 08:43:48;;;;;;;;;;;;;;;14.93;69.63;102232.66;108179;1253;124893;-81
2023/04/08 08:46:16;;;;;;;;;;;;;;;15.02;69.57;102227.10;107795;1254;61282;-80
2023/04/08 08:48:43;;;;;;;;;;;;;;;15.14;69.28;102226.23;107826;1254;127334;-82
2023/04/08 08:51:10;;;;;;;;;;;;;;;15.27;69.07;102224.65;107865;1253;66940;-81
2023/04/08 08:53:37;;;;;;;;;;;;;;;15.40;68.77;102227.51;107469;1254;73113;-82
2023/04/08 08:56:05;;;;;;;;;;;;;;;15.48;68.31;102227.56;107712;1254;124486;-80
2023/04/08 08:58:32;;;;;;;;;;;;;;;15.50;67.82;102225.67;107967;1254;60871;-82
2023/04/08 09:00:59;;;;;;;;;;;;;;;15.49;67.74;102223.52;107745;1254;124596;-82
2023/04/08 09:03:26;;;;;;;;;;;;;;;15.48;67.36;102223.14;107645;1257;65856;-82
2023/04/08 09:05:54;;;;;;;;;;;;;;;15.44;67.29;102226.91;107560;1254;124306;-81
2023/04/08 09:08:25;;;;;;;;;;;;;;;15.39;67.01;102228.02;108177;1253;59545;-80
2023/04/08 09:10:52;;;;;;;;;;;;;;;15.28;67.00;102228.22;108083;1254;59901;-80
2023/04/08 09:13:20;;;;;;;;;;;;;;;15.10;66.34;102226.80;107610;1259;125106;-80
2023/04/08 09:16:00;;;;;;;;;;;;;;;14.94;66.39;102226.14;107877;1254;65823;-80
2023/04/08 09:18:27;;;;;;;;;;;;;;;14.84;66.42;102230.79;107623;1254;124940;-80
2023/04/08 09:20:55;;;;;;;;;;;;;;;14.79;66.28;102236.64;107673;1254;62090;-80
2023/04/08 09:23:21;;;;;;;;;;;;;;;14.70;66.19;102237.96;107973;1254;60129;-80
2023/04/08 09:25:51;;;;;;;;;;;;;;;14.63;66.23;102234.91;108992;1254;124044;-80
2023/04/08 09:28:19;;;;;;;;;;;;;;;14.58;66.16;102238.45;109033;1253;67279;-80
2023/04/08 09:30:46;;;;;;;;;;;;;;;14.53;66.12;102238.27;108879;1254;124601;-80
2023/04/08 09:33:13;;;;;;;;;;;;;;;14.51;66.19;102240.13;108901;1254;59421;-80
2023/04/08 09:35:40;;;;;;;;;;;;;;;14.48;66.02;102246.38;109217;1254;59086;-80
2023/04/08 09:38:07;;;;;;;;;;;;;;;14.35;65.67;102246.65;108939;1254;123888;-80
2023/04/08 09:40:35;;;;;;;;;;;;;;;14.25;65.86;102248.09;109008;1253;216340;-80
2023/04/08 09:43:05;;;;;;;;;;;;;;;14.24;65.88;102248.60;108902;1254;124267;-80
2023/04/08 09:45:32;;;;;;;;;;;;;;;14.22;65.61;102249.75;108891;1256;59990;-80
2023/04/08 09:48:06;;;;;;;;;;;;;;;14.15;65.37;102246.88;108931;1254;124409;-80
2023/04/08 09:50:35;;;;;;;;;;;;;;;14.09;65.21;102246.67;109163;1254;73221;-80
2023/04/08 09:53:17;;;;;;;;;;;;;;;14.04;65.30;102245.96;109022;1254;67096;-80
2023/04/08 09:55:45;;;;;;;;;;;;;;;13.96;65.28;102248.36;109048;1254;123998;-80
2023/04/08 09:58:15;;;;;;;;;;;;;;;13.89;65.15;102245.09;109047;1254;59011;-81
2023/04/08 10:00:49;;;;;;;;;;;;;;;13.74;64.84;102244.05;109128;1254;124175;-81
2023/04/08 10:03:22;;;;;;;;;;;;;;;13.66;64.83;102238.10;108982;1254;72905;-82
2023/04/08 10:05:49;;;;;;;;;;;;;;;13.66;64.67;102241.98;108929;1254;124444;-79
2023/04/08 10:08:16;;;;;;;;;;;;;;;13.65;64.79;102238.25;109107;1253;71300;-80
2023/04/08 10:10:43;;;;;;;;;;;;;;;13.68;64.66;102235.16;109078;1253;59262;-81
2023/04/08 10:13:10;;;;;;;;;;;;;;;13.74;64.52;102231.52;108778;1257;124313;-80
2023/04/08 10:15:39;;;;;;;;;;;;;;;13.78;64.51;102230.61;109038;1254;75251;-81
2023/04/08 10:18:09;;;;;;;;;;;;;;;13.85;64.78;102228.34;109089;1253;124314;-80
2023/04/08 10:20:36;;;;;;;;;;;;;;;13.90;64.46;102227.83;109206;1254;71510;-80
2023/04/08 10:23:03;;;;;;;;;;;;;;;13.87;64.11;102227.73;109202;1254;59134;-81
2023/04/08 10:25:37;;;;;;;;;;;;;;;13.89;64.26;102223.94;108970;1254;124090;-79
2023/04/08 10:28:24;;;;;;;;;;;;;;;13.94;64.09;102222.50;108955;1257;74424;-79
2023/04/08 10:30:56;;;;;;;;;;;;;;;13.96;63.83;102221.34;108472;1254;124633;-79
2023/04/08 10:33:30;;;;;;;;;;;;;;;13.95;63.67;102218.49;108543;1254;72458;-79
2023/04/08 10:36:01;;;;;;;;;;;;;;;13.98;63.75;102220.18;108091;1254;124896;-79
2023/04/08 10:38:28;;;;;;;;;;;;;;;14.04;63.73;102220.54;108054;1254;60281;-78
2023/04/08 10:40:55;;;;;;;;;;;;;;;14.05;63.45;102217.41;108228;1254;74875;-79
2023/04/08 10:43:23;;;;;;;;;;;;;;;14.04;63.02;102214.19;107691;1254;124845;-79
2023/04/08 10:45:50;;;;;;;;;;;;;;;13.97;62.62;102214.66;107885;1253;71347;-80
2023/04/08 10:48:18;;;;;;;;;;;;;;;13.91;62.40;102212.86;107713;1254;124604;-79
2023/04/08 10:50:52;;;;;;;;;;;;;;;13.86;62.41;102211.81;108048;1254;61218;-79
2023/04/08 10:53:24;;;;;;;;;;;;;;;13.81;62.34;102210.77;107750;1254;73080;-80
2023/04/08 10:55:51;;;;;;;;;;;;;;;13.76;62.36;102205.66;107760;1254;124149;-80
2023/04/08 10:58:18;;;;;;;;;;;;;;;13.77;62.54;102207.08;107730;1254;72715;-81
2023/04/08 11:00:45;;;;;;;;;;;;;;;13.81;62.55;102204.39;107627;1259;124653;-80
2023/04/08 11:03:12;;;;;;;;;;;;;;;13.87;62.70;102203.20;107991;1254;61820;-80
2023/04/08 11:05:40;;;;;;;;;;;;;;;13.93;62.48;102205.71;107873;1254;73343;-80
2023/04/08 11:08:07;;;;;;;;;;;;;;;13.96;62.23;102201.06;107802;1254;124457;-80
2023/04/08 11:10:40;;;;;;;;;;;;;;;14.03;62.34;102200.77;108358;1253;71071;-80
2023/04/08 11:13:07;;;;;;;;;;;;;;;14.17;62.33;102199.10;107954;1254;124325;-80
2023/04/08 11:15:35;;;;;;;;;;;;;;;14.22;61.55;102202.63;108248;1254;61649;-80
2023/04/08 11:18:02;;;;;;;;;;;;;;;14.28;61.47;102202.62;108988;1253;124800;-80
2023/04/08 11:20:33;;;;;;;;;;;;;;;14.36;61.25;102198.83;108476;1253;65648;-81
2023/04/08 11:23:00;;;;;;;;;;;;;;;14.40;61.04;102200.05;108085;1254;72685;-81
2023/04/08 11:25:27;;;;;;;;;;;;;;;14.46;60.79;102198.63;108249;1254;124375;-81
2023/04/08 11:27:56;;;;;;;;;;;;;;;14.52;60.77;102192.13;108190;1254;60213;-80
2023/04/08 11:30:23;;;;;;;;;;;;;;;14.65;60.46;102201.05;107860;1254;124369;-80
2023/04/08 11:32:51;;;;;;;;;;;;;;;14.78;60.33;102197.55;107907;1254;67255;-81
2023/04/08 11:35:18;;;;;;;;;;;;;;;14.83;59.81;102198.23;107981;1254;73212;-81
2023/04/08 11:37:46;;;;;;;;;;;;;;;14.82;59.43;102199.09;107905;1257;124286;-81
2023/04/08 11:40:17;;;;;;;;;;;;;;;14.84;59.17;102202.52;108172;1254;62274;-80
2023/04/08 11:42:44;;;;;;;;;;;;;;;14.86;59.17;102196.23;108062;1254;124466;-80
2023/04/08 11:45:12;;;;;;;;;;;;;;;14.89;58.93;102196.65;108050;1254;66186;-79
2023/04/08 11:47:39;;;;;;;;;;;;;;;14.87;58.83;102194.13;108250;1258;71294;-79
2023/04/08 11:50:06;;;;;;;;;;;;;;;14.83;58.62;102194.15;108032;1254;124817;-79
2023/04/08 11:52:46;;;;;;;;;;;;;;;14.79;58.52;102196.54;107724;1259;61211;-79
2023/04/08 11:55:23;;;;;;;;;;;;;;;14.77;58.48;102197.36;107866;1254;124491;-79
2023/04/08 11:57:53;;;;;;;;;;;;;;;14.69;58.12;102197.98;107944;1254;65474;-79
2023/04/08 12:00:21;;;;;;;;;;;;;;;14.65;58.32;102200.52;107902;1254;124418;-79
2023/04/08 12:02:48;;;;;;;;;;;;;;;14.67;58.31;102203.58;107867;1254;61299;-79
2023/04/08 12:05:15;;;;;;;;;;;;;;;14.66;57.91;102198.41;108154;1254;60598;-79
2023/04/08 12:07:42;;;;;;;;;;;;;;;14.62;57.59;102197.40;107946;1257;124198;-79
2023/04/08 12:10:09;;;;;;;;;;;;;;;14.61;57.54;102197.02;108067;1254;67348;-79
2023/04/08 12:12:37;;;;;;;;;;;;;;;14.58;57.29;102194.64;107794;1256;124700;-79
2023/04/08 12:15:04;;;;;;;;;;;;;;;14.53;56.95;102195.52;107899;1254;59417;-79
2023/04/08 12:17:31;;;;;;;;;;;;;;;14.50;56.78;102189.23;108060;1254;59798;-79
2023/04/08 12:19:58;;;;;;;;;;;;;;;14.52;56.83;102187.17;107852;1254;124995;-79
2023/04/08 12:22:25;;;;;;;;;;;;;;;14.51;56.88;102182.89;107898;1256;65749;-81
2023/04/08 12:24:52;;;;;;;;;;;;;;;14.49;56.73;102187.61;107889;1254;124413;-81
2023/04/08 12:27:19;;;;;;;;;;;;;;;14.43;56.77;102187.06;108485;1254;59523;-81
2023/04/08 12:29:46;;;;;;;;;;;;;;;14.42;56.63;102184.73;108097;1254;124713;-80
2023/04/08 12:32:13;;;;;;;;;;;;;;;14.41;56.36;102185.21;108123;1257;73950;-81